Time;durP1;ratioP1;P1;durP2;ratioP2;P2;SDS_P1;SDS_P2;PMS_P1;PMS_P2;Temp;Humidity;BMP_temperature;BMP_pressure;BME280_temperature;BME280_humidity;BME280_pressure;Samples;Min_cycle;Max_cycle;Signal;HPM_P1;HPM_P2
2022/08/27 00:02:01;;;;;;;4.00;2.15;;;26.50;47.10;;;;;;5993273;29;20050;-79
2022/08/27 00:05:03;;;;;;;2.85;2.25;;;26.50;47.20;;;;;;6008833;29;20098;-81
2022/08/27 00:08:05;;;;;;;7.40;2.20;;;26.50;47.40;;;;;;5990389;29;20038;-79
2022/08/27 00:11:07;;;;;;;6.90;2.17;;;26.40;47.50;;;;;;6009758;29;20046;-80
2022/08/27 00:14:08;;;;;;;4.05;2.33;;;26.40;47.70;;;;;;6009337;29;20072;-80
2022/08/27 00:17:10;;;;;;;6.90;2.30;;;26.30;47.90;;;;;;6009353;29;20049;-80
2022/08/27 00:20:15;;;;;;;3.60;1.90;;;26.30;48.30;;;;;;5978193;29;20050;-80
2022/08/27 00:23:16;;;;;;;5.10;2.38;;;26.20;48.40;;;;;;6009403;29;20512;-79
2022/08/27 00:26:17;;;;;;;3.72;2.35;;;26.10;48.40;;;;;;5998760;29;20438;-79
2022/08/27 00:29:19;;;;;;;2.83;2.10;;;26.10;48.70;;;;;;6007633;29;20046;-80
2022/08/27 00:32:21;;;;;;;3.30;2.13;;;26.00;48.80;;;;;;6008116;29;20042;-79
2022/08/27 00:35:22;;;;;;;3.17;2.00;;;26.00;49.10;;;;;;6008152;29;20532;-80
2022/08/27 00:38:23;;;;;;;3.78;2.13;;;25.90;49.30;;;;;;6008187;29;20121;-79
2022/08/27 00:41:25;;;;;;;4.75;2.65;;;25.80;49.60;;;;;;6007463;29;20045;-79
2022/08/27 00:44:27;;;;;;;7.80;2.00;;;25.80;49.50;;;;;;6007325;29;20042;-80
2022/08/27 00:47:31;;;;;;;3.90;2.33;;;25.70;49.60;;;;;;5990998;29;20053;-80
2022/08/27 00:50:36;;;;;;;5.15;2.45;;;25.70;49.70;;;;;;6008796;29;20038;-80
2022/08/27 00:53:38;;;;;;;5.55;2.47;;;25.70;49.70;;;;;;5996292;29;20045;-79
2022/08/27 00:56:45;;;;;;;5.88;2.53;;;25.70;50.00;;;;;;6009474;29;20041;-80
2022/08/27 00:59:46;;;;;;;8.30;2.47;;;25.60;49.90;;;;;;6009108;29;20121;-79
2022/08/27 01:02:47;;;;;;;3.55;2.22;;;25.60;49.90;;;;;;6011397;29;20488;-81
2022/08/27 01:05:49;;;;;;;2.97;2.33;;;25.60;50.00;;;;;;6009467;29;20387;-79
2022/08/27 01:08:56;;;;;;;3.42;2.38;;;25.60;50.10;;;;;;5990564;29;20101;-80
2022/08/27 01:11:57;;;;;;;4.32;2.38;;;25.60;50.10;;;;;;6009647;29;20053;-80
2022/08/27 01:15:00;;;;;;;6.72;2.30;;;25.50;50.10;;;;;;6009098;29;20049;-80
2022/08/27 01:18:04;;;;;;;5.32;2.58;;;25.50;50.10;;;;;;6008839;29;20416;-79
2022/08/27 01:21:18;;;;;;;5.72;2.28;;;25.50;50.30;;;;;;6009076;29;20089;-80
2022/08/27 01:24:41;;;;;;;5.65;2.40;;;25.40;50.30;;;;;;6005760;29;20464;-80
2022/08/27 01:27:43;;;;;;;4.20;2.65;;;25.40;50.90;;;;;;6017621;29;20373;-79
2022/08/27 01:30:44;;;;;;;2.45;2.13;;;25.40;50.50;;;;;;6013343;29;20045;-80
2022/08/27 01:33:59;;;;;;;8.60;2.30;;;25.40;50.60;;;;;;6013072;29;20042;-80
2022/08/27 01:37:00;;;;;;;5.05;2.80;;;25.30;50.80;;;;;;6013218;29;20062;-78
2022/08/27 01:40:01;;;;;;;4.97;2.38;;;25.30;50.80;;;;;;5997971;29;20034;-79
2022/08/27 01:43:04;;;;;;;3.25;2.47;;;25.30;51.00;;;;;;6012445;29;20372;-80
2022/08/27 01:46:05;;;;;;;3.30;2.17;;;25.30;51.00;;;;;;6013701;29;20042;-79
2022/08/27 01:49:09;;;;;;;3.08;2.40;;;25.30;51.10;;;;;;6003128;29;20037;-80
2022/08/27 01:52:12;;;;;;;11.05;2.60;;;25.30;51.00;;;;;;5992464;29;20076;-79
2022/08/27 01:55:17;;;;;;;4.05;2.60;;;25.30;51.00;;;;;;6027567;29;20102;-80
2022/08/27 01:58:21;;;;;;;4.78;2.35;;;25.20;51.00;;;;;;6028014;29;20038;-80
2022/08/27 02:01:23;;;;;;;4.18;2.53;;;25.20;51.20;;;;;;5998489;29;20120;-79
2022/08/27 02:04:24;;;;;;;3.80;2.80;;;25.10;51.20;;;;;;6011741;29;20112;-79
2022/08/27 02:07:25;;;;;;;5.50;2.78;;;25.10;51.30;;;;;;5997987;29;20125;-79
2022/08/27 02:10:31;;;;;;;6.13;3.00;;;25.10;51.40;;;;;;6014457;29;20037;-79
2022/08/27 02:13:32;;;;;;;4.05;2.75;;;25.10;51.50;;;;;;6010853;29;20183;-80
2022/08/27 02:16:35;;;;;;;5.90;2.70;;;25.10;51.50;;;;;;6013813;29;20045;-80
2022/08/27 02:19:37;;;;;;;4.60;2.70;;;25.10;51.50;;;;;;6013120;29;20116;-80
2022/08/27 02:22:39;;;;;;;3.63;2.55;;;25.10;51.60;;;;;;6011446;29;20414;-79
2022/08/27 02:25:40;;;;;;;8.38;2.63;;;25.00;51.60;;;;;;6027426;29;20057;-80
2022/08/27 02:28:42;;;;;;;3.20;2.25;;;24.90;51.80;;;;;;6027910;29;20030;-79
2022/08/27 02:31:43;;;;;;;5.18;2.63;;;24.90;52.00;;;;;;5996875;29;20049;-80
2022/08/27 02:34:44;;;;;;;4.03;3.03;;;24.80;52.10;;;;;;6025193;29;20062;-79
2022/08/27 02:37:45;;;;;;;7.78;3.38;;;24.80;52.30;;;;;;5997823;29;20064;-79
2022/08/27 02:40:46;;;;;;;5.95;2.80;;;24.70;52.50;;;;;;6012588;29;20030;-79
2022/08/27 02:43:47;;;;;;;10.63;2.42;;;24.70;52.70;;;;;;6012920;29;20089;-79
2022/08/27 02:46:48;;;;;;;5.95;2.75;;;24.60;52.80;;;;;;6017931;29;20042;-79
2022/08/27 02:49:50;;;;;;;2.95;2.42;;;24.60;53.00;;;;;;6016451;29;20376;-79
2022/08/27 02:52:51;;;;;;;3.15;2.60;;;24.50;53.10;;;;;;5998110;29;20050;-80
2022/08/27 02:55:52;;;;;;;5.78;2.60;;;24.50;53.10;;;;;;6014902;29;20392;-79
2022/08/27 02:58:53;;;;;;;5.13;2.80;;;24.60;53.20;;;;;;6028267;29;20065;-79
2022/08/27 03:01:54;;;;;;;6.97;2.70;;;24.60;53.20;;;;;;6011508;29;20046;-79
2022/08/27 03:04:55;;;;;;;6.50;2.65;;;24.60;53.20;;;;;;6005597;29;20084;-79
2022/08/27 03:07:58;;;;;;;3.78;2.33;;;24.60;53.20;;;;;;6015970;29;20110;-79
2022/08/27 03:10:59;;;;;;;5.43;2.42;;;24.60;53.30;;;;;;6012538;29;20129;-79
2022/08/27 03:14:00;;;;;;;6.00;2.47;;;24.60;53.20;;;;;;6013686;29;20045;-79
2022/08/27 03:20:22;;;;;;;3.47;2.67;;;24.50;53.30;;;;;;6008584;29;20034;-79
2022/08/27 03:23:25;;;;;;;6.78;2.67;;;24.50;53.40;;;;;;6011011;29;20058;-79
2022/08/27 03:26:28;;;;;;;7.28;2.58;;;24.40;53.50;;;;;;6009287;29;20050;-79
2022/08/27 03:29:30;;;;;;;3.47;2.33;;;24.40;53.70;;;;;;6011050;29;20050;-79
2022/08/27 03:32:31;;;;;;;3.67;2.38;;;24.30;53.80;;;;;;6010197;29;20132;-79
2022/08/27 03:35:32;;;;;;;3.65;2.53;;;24.30;53.90;;;;;;6011235;29;20042;-80
2022/08/27 03:38:36;;;;;;;4.32;2.67;;;24.30;54.00;;;;;;6010453;29;20057;-79
2022/08/27 03:41:37;;;;;;;5.93;2.88;;;24.20;54.60;;;;;;6011033;29;20121;-79
2022/08/27 03:44:38;;;;;;;3.03;2.50;;;24.20;54.10;;;;;;6011294;29;20090;-79
2022/08/27 03:47:40;;;;;;;4.05;2.58;;;24.20;54.20;;;;;;6011431;29;20044;-79
2022/08/27 03:50:43;;;;;;;4.13;2.65;;;24.10;54.30;;;;;;6014032;29;20037;-79
2022/08/27 03:53:45;;;;;;;7.25;2.50;;;24.10;54.40;;;;;;6028913;29;20074;-79
2022/08/27 03:56:47;;;;;;;5.57;2.70;;;24.00;54.50;;;;;;6011287;29;20464;-79
2022/08/27 03:59:48;;;;;;;4.25;2.60;;;24.00;54.60;;;;;;6007811;29;20061;-79
2022/08/27 04:02:50;;;;;;;5.85;2.25;;;24.00;54.70;;;;;;6013508;29;20042;-79
2022/08/27 04:05:53;;;;;;;6.97;2.58;;;24.00;54.80;;;;;;6012644;29;20120;-79
2022/08/27 04:08:55;;;;;;;7.90;2.80;;;24.00;54.80;;;;;;6012522;29;20042;-80
2022/08/27 04:11:56;;;;;;;4.35;2.42;;;24.00;54.80;;;;;;6011810;29;20359;-79
2022/08/27 04:14:57;;;;;;;5.03;2.85;;;24.00;54.70;;;;;;6016623;29;20034;-79
2022/08/27 04:17:58;;;;;;;3.42;2.40;;;24.00;54.70;;;;;;5999793;29;20057;-79
2022/08/27 04:21:10;;;;;;;7.40;2.83;;;24.00;54.80;;;;;;6014940;29;20057;-79
2022/08/27 04:24:11;;;;;;;5.35;2.90;;;24.00;54.80;;;;;;6015019;29;20034;-79
2022/08/27 04:27:13;;;;;;;8.90;2.95;;;24.00;54.80;;;;;;6012744;29;20042;-79
2022/08/27 04:30:15;;;;;;;6.45;2.92;;;24.00;54.90;;;;;;5997838;29;20042;-79
2022/08/27 04:33:16;;;;;;;5.65;2.53;;;23.90;54.80;;;;;;6015993;29;20042;-80
2022/08/27 04:36:19;;;;;;;4.72;2.60;;;23.90;54.80;;;;;;6015945;29;20042;-80
2022/08/27 04:39:20;;;;;;;7.05;2.83;;;24.00;54.90;;;;;;5998705;29;20030;-79
2022/08/27 04:42:21;;;;;;;2.85;2.10;;;23.90;55.00;;;;;;6010889;29;20420;-78
2022/08/27 04:45:22;;;;;;;6.32;2.83;;;23.90;54.90;;;;;;5994711;29;20038;-79
2022/08/27 04:48:24;;;;;;;6.40;2.58;;;23.90;54.90;;;;;;6009596;29;20057;-79
2022/08/27 04:51:27;;;;;;;11.43;2.80;;;24.00;55.00;;;;;;6008464;29;20094;-79
2022/08/27 04:54:28;;;;;;;8.68;3.03;;;24.00;55.00;;;;;;5995014;29;20042;-79
2022/08/27 04:57:29;;;;;;;5.70;2.78;;;23.90;55.00;;;;;;6012298;29;20050;-79
2022/08/27 05:00:32;;;;;;;4.65;2.75;;;23.90;55.00;;;;;;6013557;29;20045;-79
2022/08/27 05:03:33;;;;;;;5.03;3.05;;;23.90;55.00;;;;;;6012158;29;20514;-79
2022/08/27 05:06:35;;;;;;;4.25;2.58;;;23.90;55.10;;;;;;6009333;29;20038;-80
2022/08/27 05:09:36;;;;;;;12.57;2.53;;;23.90;55.10;;;;;;6009440;29;20158;-79
2022/08/27 05:12:37;;;;;;;6.05;2.65;;;23.80;55.10;;;;;;6007938;29;20037;-79
2022/08/27 05:15:39;;;;;;;7.18;2.72;;;23.80;55.20;;;;;;6009043;29;20057;-79
2022/08/27 05:18:42;;;;;;;5.43;3.10;;;23.70;55.30;;;;;;6007779;29;20034;-79
2022/08/27 05:21:46;;;;;;;8.23;2.78;;;23.60;55.50;;;;;;6007436;29;20125;-79
2022/08/27 05:24:47;;;;;;;7.57;2.75;;;23.60;55.60;;;;;;5994863;29;20049;-79
2022/08/27 05:27:48;;;;;;;8.73;3.17;;;23.60;55.80;;;;;;6011073;29;20054;-79
2022/08/27 05:30:52;;;;;;;5.43;3.35;;;23.60;55.90;;;;;;5995142;29;20042;-79
2022/08/27 05:33:55;;;;;;;5.85;2.78;;;23.50;55.90;;;;;;6010595;29;20326;-79
2022/08/27 05:36:56;;;;;;;4.63;2.70;;;23.60;55.90;;;;;;5995177;29;20496;-79
2022/08/27 05:39:57;;;;;;;5.13;2.60;;;23.60;55.80;;;;;;5994835;29;20042;-79
2022/08/27 05:42:58;;;;;;;4.95;3.00;;;23.60;55.80;;;;;;5997074;29;20121;-79
2022/08/27 05:46:04;;;;;;;4.20;2.58;;;23.60;55.80;;;;;;5993371;29;20107;-79
2022/08/27 05:49:06;;;;;;;5.30;2.88;;;23.60;55.80;;;;;;5993870;29;20050;-79
2022/08/27 05:52:09;;;;;;;4.95;3.10;;;23.60;55.80;;;;;;5993372;29;20046;-78
2022/08/27 05:55:11;;;;;;;3.80;2.88;;;23.60;55.90;;;;;;6010841;29;20042;-79
2022/08/27 06:01:36;;;;;;;8.68;3.22;;;23.60;56.20;;;;;;6007417;29;20044;-79
2022/08/27 06:04:39;;;;;;;4.97;3.05;;;23.50;56.20;;;;;;6007796;29;20034;-79
2022/08/27 06:07:40;;;;;;;7.40;3.05;;;23.50;56.40;;;;;;6005512;29;20117;-79
2022/08/27 06:10:41;;;;;;;5.45;2.92;;;23.40;56.30;;;;;;5991806;29;20042;-80
2022/08/27 06:13:42;;;;;;;3.05;2.50;;;23.40;56.40;;;;;;5991429;29;20045;-81
2022/08/27 06:16:44;;;;;;;5.45;3.15;;;23.40;56.50;;;;;;5981870;29;20033;-78
2022/08/27 06:19:45;;;;;;;4.88;2.72;;;23.40;56.50;;;;;;6008070;29;20053;-78
2022/08/27 06:22:46;;;;;;;5.03;2.70;;;23.40;56.60;;;;;;5995696;29;20106;-79
2022/08/27 06:25:48;;;;;;;4.32;2.95;;;23.40;56.70;;;;;;5998421;29;20077;-80
2022/08/27 06:28:49;;;;;;;4.25;2.88;;;23.30;56.70;;;;;;6013450;29;20125;-81
2022/08/27 06:31:51;;;;;;;3.38;2.50;;;23.40;56.80;;;;;;6012601;29;20077;-79
2022/08/27 06:34:52;;;;;;;3.92;2.78;;;23.40;56.70;;;;;;6010889;29;20049;-78
2022/08/27 06:37:54;;;;;;;8.25;3.00;;;23.40;56.70;;;;;;6012133;29;20041;-79
2022/08/27 06:40:56;;;;;;;5.43;2.67;;;23.40;56.60;;;;;;6007616;29;20179;-81
2022/08/27 06:43:57;;;;;;;3.88;2.90;;;23.40;56.60;;;;;;6011134;29;20047;-80
2022/08/27 06:46:58;;;;;;;4.18;2.75;;;23.40;56.70;;;;;;6010104;29;20062;-81
2022/08/27 06:50:00;;;;;;;5.05;2.80;;;23.40;56.70;;;;;;5993092;29;20062;-80
2022/08/27 06:53:01;;;;;;;11.75;3.05;;;23.60;56.70;;;;;;6009874;29;20034;-79
2022/08/27 06:56:02;;;;;;;4.57;2.53;;;23.60;56.50;;;;;;6011361;29;20042;-79
2022/08/27 06:59:06;;;;;;;4.80;2.70;;;23.70;56.30;;;;;;6016520;29;20054;-78
2022/08/27 07:02:07;;;;;;;5.63;3.13;;;23.80;56.30;;;;;;6009877;29;20038;-79
2022/08/27 07:05:11;;;;;;;4.85;2.92;;;23.90;56.10;;;;;;6010588;29;20034;-80
2022/08/27 07:08:12;;;;;;;8.80;3.20;;;23.90;56.00;;;;;;6009149;29;20067;-80
2022/08/27 07:11:14;;;;;;;5.10;3.00;;;24.00;55.90;;;;;;6008885;29;20050;-80
2022/08/27 07:14:15;;;;;;;3.83;2.97;;;24.10;55.80;;;;;;6011019;29;20050;-79
2022/08/27 07:17:17;;;;;;;10.60;3.45;;;24.20;55.70;;;;;;5997801;29;20053;-78
2022/08/27 07:20:19;;;;;;;4.97;3.38;;;24.30;55.50;;;;;;6008124;29;20038;-79
2022/08/27 07:23:20;;;;;;;6.10;3.70;;;24.40;55.20;;;;;;6010246;29;20069;-79
2022/08/27 07:26:22;;;;;;;5.45;3.30;;;24.50;55.10;;;;;;6010504;29;20075;-80
2022/08/27 07:29:23;;;;;;;4.43;3.20;;;24.50;54.90;;;;;;5994928;29;20053;-80
2022/08/27 07:32:25;;;;;;;5.50;3.70;;;24.60;54.80;;;;;;6010060;29;20106;-80
2022/08/27 07:35:26;;;;;;;9.63;3.95;;;24.70;54.70;;;;;;6000895;29;20516;-80
2022/08/27 07:38:27;;;;;;;11.75;4.60;;;24.70;54.40;;;;;;5986770;29;20034;-79
2022/08/27 07:41:29;;;;;;;8.90;4.00;;;24.90;54.30;;;;;;5990883;29;20537;-78
2022/08/27 07:44:30;;;;;;;8.48;4.28;;;24.90;54.10;;;;;;6010412;29;20345;-79
2022/08/27 07:47:31;;;;;;;8.38;4.60;;;25.00;53.80;;;;;;6010362;29;20038;-80
2022/08/27 07:50:32;;;;;;;7.22;4.28;;;25.10;53.60;;;;;;5995827;29;20387;-79
2022/08/27 07:53:34;;;;;;;8.80;4.65;;;25.20;53.40;;;;;;6009242;29;20053;-80
2022/08/27 07:56:36;;;;;;;10.07;5.03;;;25.20;53.20;;;;;;6009597;29;20383;-79
2022/08/27 07:59:37;;;;;;;7.00;4.40;;;25.30;53.30;;;;;;5993482;29;20033;-79
2022/08/27 08:02:40;;;;;;;9.80;4.90;;;25.40;53.10;;;;;;5984508;29;20050;-79
2022/08/27 08:05:42;;;;;;;10.25;4.68;;;25.60;52.80;;;;;;6009101;29;20046;-78
2022/08/27 08:08:44;;;;;;;7.47;4.88;;;25.70;52.40;;;;;;5993327;29;20113;-78
2022/08/27 08:11:45;;;;;;;10.02;4.45;;;25.90;52.20;;;;;;5992255;29;20053;-79
2022/08/27 08:14:47;;;;;;;6.93;4.30;;;26.10;51.90;;;;;;6000071;29;20041;-79
2022/08/27 08:17:48;;;;;;;8.32;5.15;;;26.20;51.60;;;;;;6004537;29;20110;-78
2022/08/27 08:20:50;;;;;;;8.55;4.45;;;26.40;51.20;;;;;;5994485;29;20067;-79
2022/08/27 08:23:51;;;;;;;10.63;4.38;;;26.50;51.00;;;;;;6010157;29;20038;-80
2022/08/27 08:26:52;;;;;;;10.27;4.47;;;26.60;50.60;;;;;;6002210;29;20493;-78
2022/08/27 08:29:53;;;;;;;5.40;3.78;;;26.70;50.30;;;;;;6013143;29;20057;-80
2022/08/27 08:32:54;;;;;;;5.20;3.95;;;26.80;50.20;;;;;;6012907;29;20073;-80
2022/08/27 08:36:02;;;;;;;4.85;3.85;;;26.80;50.10;;;;;;6011917;29;20046;-80
2022/08/27 08:39:03;;;;;;;6.82;3.67;;;26.80;50.00;;;;;;5994700;29;20469;-80
2022/08/27 08:42:07;;;;;;;6.22;3.67;;;26.80;50.00;;;;;;6009067;29;20061;-81
2022/08/27 08:45:13;;;;;;;7.45;3.67;;;26.90;49.90;;;;;;6009564;29;20042;-80
2022/08/27 08:48:19;;;;;;;5.75;3.67;;;27.00;49.70;;;;;;6006112;29;20042;-80
2022/08/27 08:51:35;;;;;;;4.18;3.25;;;27.10;49.40;;;;;;6011854;29;20189;-79
2022/08/27 08:54:38;;;;;;;6.55;3.80;;;27.20;49.20;;;;;;5993403;29;20101;-80
2022/08/27 08:57:51;;;;;;;4.65;3.50;;;27.30;48.90;;;;;;6012312;29;20046;-80
2022/08/27 09:00:57;;;;;;;7.07;3.67;;;27.30;48.80;;;;;;6011735;29;20046;-79
2022/08/27 09:04:06;;;;;;;5.68;4.20;;;27.40;48.70;;;;;;6010437;29;20049;-79
2022/08/27 09:07:21;;;;;;;4.63;3.65;;;27.50;48.60;;;;;;6013183;29;20094;-79
2022/08/27 09:10:31;;;;;;;5.38;3.15;;;27.50;48.40;;;;;;6006068;29;20072;-79
2022/08/27 09:13:50;;;;;;;7.28;3.78;;;27.60;48.20;;;;;;6014233;29;20117;-79
2022/08/27 09:16:51;;;;;;;11.43;3.45;;;27.70;48.00;;;;;;6003819;29;20046;-78
2022/08/27 09:19:52;;;;;;;4.88;3.53;;;27.70;47.90;;;;;;6009165;29;20532;-79
2022/08/27 09:23:10;;;;;;;6.97;3.47;;;27.80;47.80;;;;;;5981950;29;20124;-80
2022/08/27 09:26:22;;;;;;;5.40;3.50;;;27.80;47.70;;;;;;6009667;29;20042;-79
2022/08/27 09:29:26;;;;;;;3.45;3.08;;;27.90;47.60;;;;;;6008528;29;20145;-79
2022/08/27 09:32:32;;;;;;;10.15;3.72;;;28.10;47.40;;;;;;5990952;29;20483;-79
2022/08/27 09:35:45;;;;;;;10.85;4.10;;;28.10;47.20;;;;;;5991607;29;20117;-81
2022/08/27 09:39:03;;;;;;;6.53;4.03;;;28.20;47.00;;;;;;5992800;29;20046;-80
2022/08/27 09:42:05;;;;;;;10.90;4.13;;;28.30;46.80;;;;;;5991561;29;20101;-79
2022/08/27 09:45:09;;;;;;;4.53;3.28;;;28.50;46.70;;;;;;5988333;29;20046;-79
2022/08/27 09:48:15;;;;;;;5.13;3.55;;;28.60;46.50;;;;;;6015602;29;20077;-79
2022/08/27 09:51:22;;;;;;;5.78;3.75;;;28.70;46.20;;;;;;6021592;29;20072;-79
2022/08/27 09:54:41;;;;;;;4.85;3.53;;;28.80;46.20;;;;;;6001640;29;20042;-80
2022/08/27 09:57:42;;;;;;;4.40;3.15;;;28.90;46.00;;;;;;6018937;29;20113;-81
2022/08/27 10:00:46;;;;;;;5.20;3.67;;;28.90;45.80;;;;;;6014894;29;20074;-81
2022/08/27 10:03:48;;;;;;;5.47;3.42;;;28.90;45.80;;;;;;6009270;29;20404;-79
2022/08/27 10:06:50;;;;;;;5.28;3.85;;;28.90;45.90;;;;;;5982766;29;20087;-80
2022/08/27 10:10:14;;;;;;;6.28;3.80;;;28.90;46.40;;;;;;6014494;29;20167;-79
2022/08/27 10:13:20;;;;;;;4.90;3.33;;;28.90;45.70;;;;;;5994894;29;20038;-79
2022/08/27 10:16:29;;;;;;;9.50;4.10;;;28.90;45.50;;;;;;5995387;29;20049;-79
2022/08/27 10:19:52;;;;;;;5.85;3.75;;;28.80;45.70;;;;;;5986629;29;20045;-80
2022/08/27 10:23:28;;;;;;;7.22;4.20;;;28.90;45.80;;;;;;6010837;29;20093;-80
2022/08/27 10:26:46;;;;;;;7.13;3.70;;;29.00;45.50;;;;;;6010352;29;20057;-79
2022/08/27 10:30:15;;;;;;;10.93;5.05;;;29.10;45.40;;;;;;5984195;29;20044;-80
2022/08/27 10:33:52;;;;;;;7.78;4.25;;;29.20;45.20;;;;;;5989974;29;20053;-80
2022/08/27 10:37:20;;;;;;;7.40;4.07;;;29.40;45.00;;;;;;5858006;30;20387;-81
2022/08/27 10:40:47;;;;;;;5.35;3.97;;;29.50;44.70;;;;;;5871782;30;20045;-79
2022/08/27 10:44:18;;;;;;;5.03;4.20;;;29.70;44.50;;;;;;5814882;30;20065;-80
2022/08/27 10:47:19;;;;;;;5.45;4.00;;;29.90;44.10;;;;;;5830590;30;20057;-80
2022/08/27 10:50:40;;;;;;;7.53;4.70;;;30.10;43.80;;;;;;5829000;30;20038;-81
2022/08/27 10:54:23;;;;;;;8.60;4.50;;;30.10;43.40;;;;;;5830515;30;20143;-79
2022/08/27 10:57:47;;;;;;;5.55;4.22;;;30.20;43.50;;;;;;5765746;30;20378;-79
2022/08/27 11:01:25;;;;;;;5.13;4.13;;;30.30;43.30;;;;;;5760240;30;20137;-80
2022/08/27 11:04:42;;;;;;;5.75;3.47;;;30.50;42.90;;;;;;5767707;30;20043;-79
2022/08/27 11:07:51;;;;;;;4.65;3.65;;;30.60;42.60;;;;;;5763787;30;20134;-79
2022/08/27 11:11:03;;;;;;;5.38;3.88;;;30.70;42.50;;;;;;5772290;30;20055;-80
2022/08/27 11:14:13;;;;;;;5.45;3.83;;;30.90;42.00;;;;;;5812982;30;20049;-80
2022/08/27 11:17:28;;;;;;;6.25;3.78;;;31.10;41.70;;;;;;5812839;30;20520;-80
2022/08/27 11:20:47;;;;;;;7.95;4.10;;;31.30;41.30;;;;;;5851471;30;20133;-79
2022/08/27 11:23:58;;;;;;;4.45;3.60;;;31.30;41.10;;;;;;5921256;30;20067;-80
2022/08/27 11:27:04;;;;;;;5.00;3.42;;;31.60;40.80;;;;;;5901276;30;20148;-80
2022/08/27 11:30:15;;;;;;;6.18;4.03;;;31.80;40.30;;;;;;5895483;30;20039;-80
2022/08/27 11:33:34;;;;;;;10.45;4.20;;;32.00;40.00;;;;;;5939511;29;20054;-80
2022/08/27 11:36:56;;;;;;;4.13;3.72;;;32.10;39.80;;;;;;5969082;29;20118;-80
2022/08/27 11:40:04;;;;;;;5.47;4.10;;;32.00;39.80;;;;;;5965316;29;20038;-81
2022/08/27 11:43:15;;;;;;;6.45;3.47;;;32.10;39.90;;;;;;5968530;29;20042;-81
2022/08/27 11:46:26;;;;;;;4.90;3.65;;;32.00;39.90;;;;;;5968348;29;20071;-80
2022/08/27 11:49:42;;;;;;;4.40;4.00;;;32.10;39.70;;;;;;5985291;29;20430;-81
2022/08/27 11:52:57;;;;;;;7.35;3.72;;;32.40;39.40;;;;;;5988923;29;20043;-81
2022/08/27 11:56:20;;;;;;;6.32;3.65;;;32.60;38.90;;;;;;5968585;29;20126;-80
2022/08/27 11:59:25;;;;;;;8.60;3.60;;;32.80;38.40;;;;;;5971649;29;20043;-80
2022/08/27 12:02:28;;;;;;;3.97;3.25;;;33.00;38.10;;;;;;5969325;29;20046;-80
2022/08/27 12:05:41;;;;;;;4.47;3.42;;;33.10;37.80;;;;;;5976452;29;20038;-80
2022/08/27 12:08:42;;;;;;;4.72;3.47;;;33.40;37.40;;;;;;5967805;29;20326;-81
2022/08/27 12:11:48;;;;;;;6.63;3.90;;;33.60;37.00;;;;;;5965149;29;20038;-80
2022/08/27 12:15:21;;;;;;;3.53;3.08;;;33.90;36.20;;;;;;5980732;29;20050;-80
2022/08/27 12:19:06;;;;;;;5.43;3.28;;;34.10;36.10;;;;;;5955213;29;20266;-80
2022/08/27 12:26:34;;;;;;;4.97;3.47;;;34.90;34.40;;;;;;5939244;29;20126;-79
2022/08/27 12:29:44;;;;;;;3.58;3.28;;;35.40;33.60;;;;;;5960118;29;20211;-79
2022/08/27 12:32:50;;;;;;;5.22;3.63;;;35.70;33.00;;;;;;5928079;29;20122;-79
2022/08/27 12:35:53;;;;;;;4.30;3.13;;;36.20;32.00;;;;;;5961530;29;20354;-79
2022/08/27 12:38:57;;;;;;;5.90;2.85;;;36.40;31.70;;;;;;5936347;29;20125;-80
2022/08/27 12:41:58;;;;;;;3.90;2.65;;;36.70;31.10;;;;;;5963380;29;20043;-80
2022/08/27 12:44:59;;;;;;;6.75;3.45;;;37.20;30.60;;;;;;5945833;29;20362;-81
2022/08/27 12:48:01;;;;;;;10.43;3.72;;;37.30;30.10;;;;;;5960650;29;20139;-79
2022/08/27 12:51:11;;;;;;;4.75;3.28;;;37.40;30.00;;;;;;5961666;29;20393;-80
2022/08/27 12:54:53;;;;;;;3.30;3.00;;;37.70;29.70;;;;;;5930836;29;20078;-80
2022/08/27 12:58:13;;;;;;;5.22;3.10;;;38.30;29.00;;;;;;5878733;30;20626;-80
2022/08/27 13:01:16;;;;;;;4.43;2.90;;;38.80;28.50;;;;;;5881376;30;20044;-79
2022/08/27 13:04:24;;;;;;;3.30;3.00;;;39.00;28.20;;;;;;5912415;30;20047;-80
2022/08/27 13:07:27;;;;;;;4.07;3.25;;;39.10;27.90;;;;;;5890125;30;20151;-80
2022/08/27 13:10:31;;;;;;;5.95;3.00;;;39.40;27.60;;;;;;5897345;30;20475;-80
2022/08/27 13:13:33;;;;;;;2.90;2.63;;;39.60;27.20;;;;;;5888823;30;20047;-80
2022/08/27 13:16:36;;;;;;;10.77;2.90;;;39.70;27.20;;;;;;5893535;30;20040;-80
2022/08/27 13:19:49;;;;;;;3.88;2.85;;;39.90;26.90;;;;;;5879784;30;20127;-80
2022/08/27 13:22:52;;;;;;;3.38;2.90;;;40.00;26.70;;;;;;5907011;29;20483;-79
2022/08/27 13:26:05;;;;;;;5.18;2.70;;;40.00;26.70;;;;;;5923344;29;20082;-80
2022/08/27 13:29:07;;;;;;;5.20;2.97;;;40.20;26.50;;;;;;5985812;29;20034;-80
2022/08/27 13:32:13;;;;;;;8.18;2.78;;;40.40;26.10;;;;;;6006343;29;20041;-80
2022/08/27 13:35:15;;;;;;;4.18;2.90;;;40.40;26.00;;;;;;6007341;29;20357;-80
2022/08/27 13:38:18;;;;;;;4.43;3.22;;;40.20;26.20;;;;;;6000548;29;20026;-80
2022/08/27 13:41:39;;;;;;;3.15;2.78;;;40.10;26.30;;;;;;6008376;29;20038;-80
2022/08/27 13:44:41;;;;;;;7.28;3.08;;;40.30;26.20;;;;;;6005892;29;20046;-79
2022/08/27 13:47:45;;;;;;;3.60;2.90;;;40.50;25.80;;;;;;6005545;29;20034;-80
2022/08/27 13:50:51;;;;;;;3.20;2.90;;;40.90;25.60;;;;;;6015806;29;20045;-80
2022/08/27 13:57:23;;;;;;;6.85;2.40;;;41.40;25.00;;;;;;6006679;29;20375;-80
2022/08/27 14:00:26;;;;;;;5.25;2.60;;;41.60;24.80;;;;;;6017310;29;20102;-81
2022/08/27 14:03:33;;;;;;;3.67;3.08;;;41.80;24.60;;;;;;6005384;29;20050;-80
2022/08/27 14:06:44;;;;;;;2.88;2.40;;;42.10;24.30;;;;;;6009528;29;20441;-80
2022/08/27 14:09:54;;;;;;;2.90;2.53;;;42.20;23.90;;;;;;6009734;29;20042;-79
2022/08/27 14:13:06;;;;;;;4.88;2.83;;;42.40;23.90;;;;;;6015266;29;20106;-79
2022/08/27 14:16:34;;;;;;;5.95;2.45;;;41.70;24.20;;;;;;6019563;29;20102;-80
2022/08/27 14:19:35;;;;;;;2.55;2.35;;;40.50;25.30;;;;;;6020803;29;20026;-78
2022/08/27 14:22:36;;;;;;;3.30;2.58;;;39.40;26.20;;;;;;6007013;29;20035;-81
2022/08/27 14:25:39;;;;;;;4.30;2.78;;;38.40;27.10;;;;;;6015548;29;20532;-80
2022/08/27 14:28:41;;;;;;;4.05;2.60;;;37.50;28.00;;;;;;6006103;29;20253;-79
2022/08/27 14:31:42;;;;;;;2.90;2.60;;;36.60;28.90;;;;;;5990814;29;20089;-80
2022/08/27 14:34:44;;;;;;;4.13;2.90;;;35.70;29.90;;;;;;6009253;29;20049;-79
2022/08/27 14:37:46;;;;;;;4.00;2.80;;;35.00;31.00;;;;;;6010898;29;20042;-79
2022/08/27 14:40:49;;;;;;;4.82;2.80;;;34.30;31.90;;;;;;6008951;29;20044;-80
2022/08/27 14:43:50;;;;;;;3.05;2.58;;;33.90;32.70;;;;;;6013516;29;20085;-80
2022/08/27 14:46:52;;;;;;;4.63;2.95;;;33.40;33.80;;;;;;6012521;29;20464;-79
2022/08/27 14:49:53;;;;;;;4.03;2.72;;;32.90;34.40;;;;;;6014555;29;20093;-79
2022/08/27 14:52:54;;;;;;;5.88;2.75;;;32.50;35.00;;;;;;6016069;29;20045;-79
2022/08/27 14:55:58;;;;;;;3.92;3.00;;;32.30;35.50;;;;;;6011399;29;20061;-80
2022/08/27 14:58:59;;;;;;;5.68;2.78;;;32.10;36.00;;;;;;6009013;29;20045;-80
2022/08/27 15:02:05;;;;;;;3.63;2.83;;;31.90;36.40;;;;;;6002678;29;20484;-80
2022/08/27 15:05:06;;;;;;;3.90;3.20;;;31.90;36.70;;;;;;6005787;29;20042;-80
2022/08/27 15:08:11;;;;;;;3.92;2.80;;;31.80;37.00;;;;;;6028946;29;20048;-80
2022/08/27 15:11:17;;;;;;;4.47;2.92;;;31.60;37.20;;;;;;6009829;29;20449;-80
2022/08/27 15:14:30;;;;;;;3.55;2.80;;;31.60;37.50;;;;;;6011530;29;20042;-79
2022/08/27 15:17:32;;;;;;;6.90;2.85;;;31.50;37.70;;;;;;5997550;29;20133;-79
2022/08/27 15:20:33;;;;;;;2.95;2.67;;;31.50;37.90;;;;;;6000797;29;20045;-80
2022/08/27 15:23:35;;;;;;;4.18;2.45;;;31.40;38.00;;;;;;6023160;29;20313;-80
2022/08/27 15:26:37;;;;;;;3.38;2.80;;;31.40;38.20;;;;;;6008132;29;20042;-80
2022/08/27 15:29:38;;;;;;;3.97;2.65;;;31.30;38.30;;;;;;6023449;29;20034;-82
2022/08/27 15:32:43;;;;;;;7.40;2.75;;;31.30;38.30;;;;;;6008856;29;20378;-81
2022/08/27 15:35:45;;;;;;;3.58;2.90;;;31.40;38.40;;;;;;6002228;29;20034;-80
2022/08/27 15:38:46;;;;;;;5.57;3.40;;;31.50;38.40;;;;;;6008169;29;20736;-80
2022/08/27 15:41:47;;;;;;;5.35;2.70;;;31.50;38.40;;;;;;6009789;29;20045;-81
2022/08/27 15:44:54;;;;;;;4.28;2.97;;;31.50;38.50;;;;;;6008732;29;20045;-80
2022/08/27 15:47:56;;;;;;;4.30;2.83;;;31.40;39.10;;;;;;6007729;29;20192;-81
2022/08/27 15:51:10;;;;;;;3.35;2.90;;;31.50;38.60;;;;;;6007411;29;20583;-80
2022/08/27 15:54:11;;;;;;;3.72;3.20;;;31.50;38.70;;;;;;6013768;29;20483;-80
2022/08/27 15:57:13;;;;;;;3.97;2.90;;;31.50;38.60;;;;;;6008634;29;20406;-80
2022/08/27 16:00:15;;;;;;;6.43;2.67;;;31.70;38.40;;;;;;6008902;29;20042;-80
2022/08/27 16:03:16;;;;;;;3.08;2.78;;;32.60;37.00;;;;;;6018393;29;20034;-80
2022/08/27 16:06:19;;;;;;;7.60;2.85;;;33.90;35.20;;;;;;6006667;29;20448;-80
2022/08/27 16:09:21;;;;;;;4.35;2.70;;;35.20;33.20;;;;;;5986944;29;20106;-80
2022/08/27 16:12:22;;;;;;;5.40;3.10;;;36.20;31.60;;;;;;6008219;29;20038;-80
2022/08/27 16:15:24;;;;;;;4.90;2.58;;;36.90;30.40;;;;;;6009898;29;20038;-80
2022/08/27 16:18:30;;;;;;;4.10;2.35;;;37.40;29.70;;;;;;6009308;29;20060;-80